createdAt,value
2022-11-16T00:00:20.007Z,7.27
2022-11-16T00:03:04.824Z,7.26
2022-11-16T00:05:32.453Z,7.26
2022-11-16T00:08:00.099Z,7.25
2022-11-16T00:10:27.709Z,7.24
2022-11-16T00:12:55.340Z,7.25
2022-11-16T00:15:22.971Z,7.26
2022-11-16T00:17:50.571Z,7.26
2022-11-16T00:20:18.176Z,7.26
2022-11-16T00:22:45.742Z,7.27
2022-11-16T00:25:13.407Z,7.27
2022-11-16T00:27:41.001Z,7.27
2022-11-16T00:30:09.114Z,7.30
2022-11-16T00:32:36.708Z,7.30
2022-11-16T00:35:04.564Z,7.30
2022-11-16T00:37:32.392Z,7.30
2022-11-16T00:39:59.957Z,7.30
2022-11-16T00:42:27.540Z,7.30
2022-11-16T00:44:55.109Z,7.32
2022-11-16T00:47:22.655Z,7.31
2022-11-16T00:49:50.443Z,7.32
2022-11-16T00:52:18.004Z,7.30
2022-11-16T00:54:45.691Z,7.30
2022-11-16T00:57:13.246Z,7.29
2022-11-16T00:59:40.859Z,7.28
2022-11-16T01:02:08.418Z,7.27
2022-11-16T01:04:36.048Z,7.27
2022-11-16T01:07:03.723Z,7.28
2022-11-16T01:09:31.542Z,7.27
2022-11-16T01:11:59.115Z,7.29
2022-11-16T01:14:26.760Z,7.30
2022-11-16T01:16:54.378Z,7.30
2022-11-16T01:19:21.941Z,7.30
2022-11-16T01:21:49.521Z,7.31
2022-11-16T01:24:17.112Z,7.30
2022-11-16T01:26:44.687Z,7.30
2022-11-16T01:29:12.300Z,7.31
2022-11-16T01:31:39.931Z,7.31
2022-11-16T01:34:08.035Z,7.31
2022-11-16T01:36:35.636Z,7.31
2022-11-16T01:39:04.967Z,7.31
2022-11-16T01:41:33.126Z,7.31
2022-11-16T01:44:05.117Z,7.30
2022-11-16T01:46:32.951Z,7.31
2022-11-16T01:49:06.745Z,7.30
2022-11-16T01:51:35.203Z,7.30
2022-11-16T01:54:08.542Z,7.29
2022-11-16T01:56:38.830Z,7.29
2022-11-16T01:59:06.775Z,7.30
2022-11-16T02:01:34.466Z,7.29
2022-11-16T02:04:02.141Z,7.30
2022-11-16T02:06:59.685Z,7.30
2022-11-16T02:09:48.406Z,7.29
2022-11-16T02:12:36.361Z,7.30
2022-11-16T02:15:19.100Z,7.30
2022-11-16T02:18:05.413Z,7.29
2022-11-16T02:21:04.085Z,7.29
2022-11-16T02:23:53.380Z,7.30
2022-11-16T02:26:33.269Z,7.31
2022-11-16T02:29:23.839Z,7.32
2022-11-16T02:31:55.758Z,7.32
2022-11-16T02:34:32.072Z,7.31
2022-11-16T02:37:02.220Z,7.31
2022-11-16T02:39:32.691Z,7.29
2022-11-16T02:42:02.765Z,7.30
2022-11-16T02:44:34.367Z,7.30
2022-11-16T02:47:07.695Z,7.31
2022-11-16T02:49:45.488Z,7.33
2022-11-16T02:52:16.303Z,7.35
2022-11-16T02:54:46.152Z,7.35
2022-11-16T02:57:32.087Z,7.36
2022-11-16T03:00:01.291Z,7.38
2022-11-16T03:02:36.166Z,7.40
2022-11-16T03:05:27.805Z,7.42
2022-11-16T03:08:00.790Z,7.44
2022-11-16T03:10:29.937Z,7.45
2022-11-16T03:13:01.944Z,7.45
2022-11-16T03:15:39.997Z,7.46
2022-11-16T03:18:16.800Z,7.45
2022-11-16T03:20:46.723Z,7.45
2022-11-16T03:23:14.877Z,7.45
2022-11-16T03:26:15.394Z,7.44
2022-11-16T03:28:48.855Z,7.44
2022-11-16T03:31:28.300Z,7.44
2022-11-16T03:34:00.978Z,7.43
2022-11-16T03:36:32.597Z,7.44
2022-11-16T03:39:02.792Z,7.44
2022-11-16T03:41:32.426Z,7.42
2022-11-16T03:44:01.126Z,7.42
2022-11-16T03:46:28.920Z,7.42
2022-11-16T03:49:00.612Z,7.44
2022-11-16T03:51:28.247Z,7.45
2022-11-16T03:53:55.845Z,7.45
2022-11-16T03:56:23.459Z,7.46
2022-11-16T03:58:51.051Z,7.47
2022-11-16T04:01:18.768Z,7.47
2022-11-16T04:03:46.503Z,7.47
2022-11-16T04:06:14.267Z,7.46
2022-11-16T04:08:41.925Z,7.46
2022-11-16T04:11:19.262Z,7.47
2022-11-16T04:13:47.454Z,7.47
2022-11-16T04:16:15.065Z,7.45
2022-11-16T04:18:42.670Z,7.45
2022-11-16T04:21:22.243Z,7.45
2022-11-16T04:23:49.998Z,7.45
2022-11-16T04:26:18.089Z,7.43
2022-11-16T04:28:48.354Z,7.42
2022-11-16T04:31:15.937Z,7.42
2022-11-16T04:33:44.204Z,7.42
2022-11-16T04:36:15.373Z,7.42
2022-11-16T04:38:45.557Z,7.42
2022-11-16T04:41:13.201Z,7.41
2022-11-16T04:43:40.792Z,7.41
2022-11-16T04:46:08.357Z,7.39
2022-11-16T04:48:36.313Z,7.39
2022-11-16T04:51:04.372Z,7.38
2022-11-16T04:53:31.981Z,7.37
2022-11-16T04:56:00.981Z,7.36
2022-11-16T04:58:28.768Z,7.36
2022-11-16T05:00:56.417Z,7.37
2022-11-16T05:03:24.137Z,7.37
2022-11-16T05:05:51.761Z,7.37
2022-11-16T05:08:19.305Z,7.37
2022-11-16T05:10:51.039Z,7.36
2022-11-16T05:13:18.619Z,7.35
2022-11-16T05:15:46.471Z,7.35
2022-11-16T05:18:14.074Z,7.36
2022-11-16T05:20:41.821Z,7.38
2022-11-16T05:23:09.823Z,7.38
2022-11-16T05:25:37.671Z,7.39
2022-11-16T05:28:05.343Z,7.39
2022-11-16T05:30:32.942Z,7.39
2022-11-16T05:33:00.543Z,7.40
2022-11-16T05:35:28.113Z,7.40
2022-11-16T05:37:55.704Z,7.39
2022-11-16T05:40:23.279Z,7.40
2022-11-16T05:42:50.863Z,7.38
2022-11-16T05:45:20.965Z,7.39
2022-11-16T05:47:48.916Z,7.40
2022-11-16T05:50:16.649Z,7.41
2022-11-16T05:52:44.231Z,7.41
2022-11-16T05:55:11.829Z,7.41
2022-11-16T05:57:39.387Z,7.41
2022-11-16T06:00:07.732Z,7.41
2022-11-16T06:02:35.371Z,7.42
2022-11-16T06:05:03.285Z,7.42
2022-11-16T06:07:30.968Z,7.43
2022-11-16T06:09:58.588Z,7.44
2022-11-16T06:12:26.233Z,7.43
2022-11-16T06:14:53.788Z,7.43
2022-11-16T06:17:21.361Z,7.44
2022-11-16T06:19:49.000Z,7.46
2022-11-16T06:22:16.573Z,7.45
2022-11-16T06:24:44.166Z,7.45
2022-11-16T06:27:11.710Z,7.45
2022-11-16T06:29:39.292Z,7.45
2022-11-16T06:32:06.931Z,7.45
2022-11-16T06:34:34.541Z,7.47
2022-11-16T06:37:02.155Z,7.47
2022-11-16T06:39:29.726Z,7.49
2022-11-16T06:41:57.311Z,7.51
2022-11-16T06:44:24.884Z,7.53
2022-11-16T06:46:52.476Z,7.55
2022-11-16T06:49:20.049Z,7.58
2022-11-16T06:51:47.616Z,7.60
2022-11-16T06:54:15.165Z,7.60
2022-11-16T06:56:42.732Z,7.60
2022-11-16T06:59:10.274Z,7.60
2022-11-16T07:01:38.450Z,7.59
2022-11-16T07:04:08.456Z,7.61
2022-11-16T07:06:36.106Z,7.62
2022-11-16T07:09:07.347Z,7.63
2022-11-16T07:11:36.163Z,7.64
2022-11-16T07:14:04.402Z,7.67
2022-11-16T07:16:34.255Z,7.68
2022-11-16T07:19:02.244Z,7.71
2022-11-16T07:21:30.781Z,7.72
2022-11-16T07:23:58.353Z,7.73
2022-11-16T07:26:25.978Z,7.75
2022-11-16T07:28:53.550Z,7.77
2022-11-16T07:31:21.150Z,7.79
2022-11-16T07:33:48.692Z,7.82
2022-11-16T07:36:16.387Z,7.84
2022-11-16T07:38:44.355Z,7.85
2022-11-16T07:41:17.429Z,7.89
2022-11-16T07:43:51.529Z,7.89
2022-11-16T07:46:46.156Z,7.91
2022-11-16T07:49:14.255Z,7.91
2022-11-16T07:51:42.591Z,7.93
2022-11-16T07:54:14.644Z,7.93
2022-11-16T07:56:42.623Z,7.94
2022-11-16T07:59:10.275Z,7.95
2022-11-16T08:01:37.939Z,7.97
2022-11-16T08:04:05.517Z,7.98
2022-11-16T08:06:33.096Z,8.01
2022-11-16T08:09:00.661Z,8.01
2022-11-16T08:11:28.293Z,8.02
2022-11-16T08:13:56.536Z,8.06
2022-11-16T08:16:24.121Z,8.07
2022-11-16T08:18:51.826Z,8.06
2022-11-16T08:21:19.903Z,8.07
2022-11-16T08:23:47.477Z,8.07
2022-11-16T08:26:17.643Z,8.08
2022-11-16T08:28:47.671Z,8.10
2022-11-16T08:31:21.129Z,8.12
2022-11-16T08:33:48.710Z,8.15
2022-11-16T08:36:16.288Z,8.17
2022-11-16T08:38:45.190Z,8.18
2022-11-16T08:41:13.373Z,8.19
2022-11-16T08:43:41.148Z,8.20
2022-11-16T08:46:10.379Z,8.20
2022-11-16T08:48:38.405Z,8.21
2022-11-16T08:51:20.409Z,8.22
2022-11-16T08:53:49.704Z,8.22
2022-11-16T08:56:18.726Z,8.24
2022-11-16T08:58:46.781Z,8.26
2022-11-16T09:01:17.495Z,8.28
2022-11-16T09:03:45.595Z,8.29
2022-11-16T09:06:13.924Z,8.30
2022-11-16T09:08:43.383Z,8.30
2022-11-16T09:11:18.293Z,8.32
2022-11-16T09:13:47.662Z,8.34
2022-11-16T09:16:15.685Z,8.36
2022-11-16T09:18:47.789Z,8.38
2022-11-16T09:21:20.772Z,8.39
2022-11-16T09:23:49.257Z,8.40
2022-11-16T09:26:17.969Z,8.42
2022-11-16T09:28:45.579Z,8.43
2022-11-16T09:31:15.563Z,8.43
2022-11-16T09:33:46.579Z,8.44
2022-11-16T09:36:14.204Z,8.47
2022-11-16T09:39:17.845Z,8.49
2022-11-16T09:41:46.129Z,8.50
2022-11-16T09:44:29.083Z,8.50
2022-11-16T09:46:59.451Z,8.50
2022-11-16T09:49:36.340Z,8.51
2022-11-16T09:52:09.774Z,8.53
2022-11-16T09:54:42.376Z,8.56
2022-11-16T09:57:14.679Z,8.56
2022-11-16T09:59:49.588Z,8.53
2022-11-16T10:02:40.220Z,8.52
2022-11-16T10:05:16.212Z,8.53
2022-11-16T10:07:47.037Z,8.52
2022-11-16T10:10:36.792Z,8.53
2022-11-16T10:13:23.430Z,8.54
2022-11-16T10:15:53.650Z,8.56
2022-11-16T10:18:32.353Z,8.57
2022-11-16T10:21:18.067Z,8.61
2022-11-16T10:24:17.486Z,8.61
2022-11-16T10:27:05.818Z,8.62
2022-11-16T10:30:09.157Z,8.62
2022-11-16T10:32:47.273Z,8.65
2022-11-16T10:35:27.369Z,8.67
2022-11-16T10:37:55.720Z,8.67
2022-11-16T10:40:29.874Z,8.67
2022-11-16T10:43:18.804Z,8.68
2022-11-16T10:46:20.139Z,8.72
2022-11-16T10:49:00.406Z,8.71
2022-11-16T10:51:28.037Z,8.71
2022-11-16T10:53:55.683Z,8.71
2022-11-16T10:56:47.059Z,8.74
2022-11-16T10:59:18.666Z,8.79
2022-11-16T11:01:50.176Z,8.83
2022-11-16T11:04:21.924Z,8.84
2022-11-16T11:06:52.720Z,8.85
2022-11-16T11:09:32.072Z,8.85
2022-11-16T11:12:01.151Z,8.85
2022-11-16T11:14:28.743Z,8.86
2022-11-16T11:17:11.245Z,8.87
2022-11-16T11:19:38.788Z,8.86
2022-11-16T11:22:13.733Z,8.85
2022-11-16T11:24:47.534Z,8.86
2022-11-16T11:27:22.309Z,8.87
2022-11-16T11:29:54.307Z,8.90
2022-11-16T11:32:25.048Z,8.93
2022-11-16T11:34:54.541Z,8.94
2022-11-16T11:37:29.815Z,8.96
2022-11-16T11:40:17.154Z,8.97
2022-11-16T11:42:57.050Z,8.97
2022-11-16T11:45:50.431Z,8.98
2022-11-16T11:48:29.980Z,9.02
2022-11-16T11:51:32.843Z,9.05
2022-11-16T11:54:04.679Z,9.09
2022-11-16T11:56:33.355Z,9.13
2022-11-16T11:59:04.716Z,9.15
2022-11-16T12:01:57.516Z,9.15
2022-11-16T12:04:43.145Z,9.15
2022-11-16T12:07:35.290Z,9.16
2022-11-16T12:10:02.810Z,9.18
2022-11-16T12:12:50.527Z,9.17
2022-11-16T12:16:09.529Z,9.18
2022-11-16T12:19:14.147Z,9.20
2022-11-16T12:22:03.607Z,9.24
2022-11-16T12:24:46.538Z,9.25
2022-11-16T12:27:43.476Z,9.25
2022-11-16T12:30:19.204Z,9.25
2022-11-16T12:33:13.955Z,9.26
2022-11-16T12:36:00.883Z,9.25
2022-11-16T12:38:47.380Z,9.24
2022-11-16T12:41:26.895Z,9.25
2022-11-16T12:44:10.935Z,9.24
2022-11-16T12:46:57.487Z,9.22
2022-11-16T12:49:27.723Z,9.20
2022-11-16T12:52:21.839Z,9.19
2022-11-16T12:55:25.479Z,9.16
2022-11-16T12:58:03.780Z,9.11
2022-11-16T13:00:45.028Z,9.07
2022-11-16T13:03:31.594Z,9.04
2022-11-16T13:06:05.048Z,9.01
2022-11-16T13:08:40.073Z,9.00
2022-11-16T13:11:22.358Z,8.99
2022-11-16T13:13:56.356Z,8.98
2022-11-16T13:16:25.165Z,8.99
2022-11-16T13:18:54.403Z,8.99
2022-11-16T13:21:40.250Z,9.00
2022-11-16T13:24:24.503Z,9.01
2022-11-16T13:27:10.512Z,9.01
2022-11-16T13:29:46.417Z,9.02
2022-11-16T13:32:24.188Z,9.02
2022-11-16T13:34:52.541Z,9.01
2022-11-16T13:37:38.298Z,9.01
2022-11-16T13:40:05.929Z,9.03
2022-11-16T13:42:39.072Z,9.04
2022-11-16T13:45:19.126Z,9.04
2022-11-16T13:47:53.034Z,9.04
2022-11-16T13:50:24.248Z,9.04
2022-11-16T13:55:45.448Z,9.03
2022-11-16T13:58:21.564Z,9.03
2022-11-16T14:01:01.326Z,9.06
2022-11-16T14:03:32.861Z,9.08
2022-11-16T14:06:00.761Z,9.09
2022-11-16T14:08:34.280Z,9.08
2022-11-16T14:11:01.979Z,9.07
2022-11-16T14:13:39.698Z,9.08
2022-11-16T14:16:19.661Z,9.08
2022-11-16T14:18:51.567Z,9.07
2022-11-16T14:21:19.141Z,9.05
2022-11-16T14:24:05.364Z,9.04
2022-11-16T14:26:36.044Z,9.03
2022-11-16T14:29:25.145Z,9.03
2022-11-16T14:31:55.815Z,9.03
2022-11-16T14:34:32.730Z,9.02
2022-11-16T14:37:00.597Z,9.01
2022-11-16T14:39:43.244Z,8.99
2022-11-16T14:42:22.592Z,8.97
2022-11-16T14:44:57.231Z,8.97
2022-11-16T14:47:26.993Z,8.98
2022-11-16T14:49:55.541Z,8.97
2022-11-16T14:52:45.359Z,8.96
2022-11-16T14:55:21.546Z,8.96
2022-11-16T14:57:49.106Z,8.96
2022-11-16T15:00:21.244Z,8.96
2022-11-16T15:02:57.688Z,8.96
2022-11-16T15:05:34.497Z,8.95
2022-11-16T15:08:07.868Z,8.94
2022-11-16T15:10:35.757Z,8.88
2022-11-16T15:13:04.212Z,8.82
2022-11-16T15:15:31.959Z,8.79
2022-11-16T15:17:59.623Z,8.79
2022-11-16T15:20:30.345Z,8.77
2022-11-16T15:22:59.209Z,8.77
2022-11-16T15:25:28.589Z,8.77
2022-11-16T15:27:58.229Z,8.76
2022-11-16T15:30:29.120Z,8.76
2022-11-16T15:32:57.292Z,8.78
2022-11-16T15:35:28.271Z,8.80
2022-11-16T15:38:06.460Z,8.80
2022-11-16T15:40:34.848Z,8.80
2022-11-16T15:43:05.052Z,8.80
2022-11-16T15:45:33.886Z,8.81
2022-11-16T15:48:02.559Z,8.80
2022-11-16T15:50:30.962Z,8.79
2022-11-16T15:52:59.188Z,8.79
2022-11-16T15:55:29.787Z,8.79
2022-11-16T15:58:19.658Z,8.76
2022-11-16T16:00:48.213Z,8.74
2022-11-16T16:03:21.475Z,8.71
2022-11-16T16:05:49.611Z,8.69
2022-11-16T16:08:27.643Z,8.65
2022-11-16T16:10:58.907Z,8.63
2022-11-16T16:13:40.289Z,8.60
2022-11-16T16:16:17.079Z,8.56
2022-11-16T16:18:45.447Z,8.52
2022-11-16T16:21:13.563Z,8.50
2022-11-16T16:23:50.509Z,8.48
2022-11-16T16:26:18.318Z,8.46
2022-11-16T16:28:45.944Z,8.43
2022-11-16T16:31:13.712Z,8.40
2022-11-16T16:33:44.037Z,8.38
2022-11-16T16:36:11.603Z,8.36
2022-11-16T16:38:40.058Z,8.35
2022-11-16T16:41:08.087Z,8.33
2022-11-16T16:43:35.903Z,8.31
2022-11-16T16:46:04.176Z,8.28
2022-11-16T16:48:31.739Z,8.27
2022-11-16T16:50:59.318Z,8.26
2022-11-16T16:53:27.150Z,8.25
2022-11-16T16:55:54.780Z,8.24
2022-11-16T16:58:25.110Z,8.22
2022-11-16T17:00:56.933Z,8.21
2022-11-16T17:03:27.545Z,8.21
2022-11-16T17:06:00.004Z,8.21
2022-11-16T17:08:32.324Z,8.22
2022-11-16T17:11:01.867Z,8.23
2022-11-16T17:13:29.743Z,8.24
2022-11-16T17:15:57.323Z,8.26
2022-11-16T17:18:26.215Z,8.27
2022-11-16T17:20:53.829Z,8.28
2022-11-16T17:23:21.447Z,8.30
2022-11-16T17:25:49.005Z,8.29
2022-11-16T17:28:16.595Z,8.29
2022-11-16T17:30:44.384Z,8.30
2022-11-16T17:33:12.047Z,8.31
2022-11-16T17:35:39.708Z,8.33
2022-11-16T17:38:09.911Z,8.33
2022-11-16T17:40:37.490Z,8.32
2022-11-16T17:43:05.091Z,8.32
2022-11-16T17:45:32.787Z,8.34
2022-11-16T17:48:00.388Z,8.34
2022-11-16T17:50:27.959Z,8.37
2022-11-16T17:52:55.584Z,8.36
2022-11-16T17:55:23.191Z,8.34
2022-11-16T17:57:50.858Z,8.33
2022-11-16T18:00:18.828Z,8.33
2022-11-16T18:02:46.445Z,8.31
2022-11-16T18:05:14.140Z,8.28
2022-11-16T18:07:41.704Z,8.27
2022-11-16T18:10:09.689Z,8.26
2022-11-16T18:12:37.484Z,8.26
2022-11-16T18:15:27.540Z,8.26
2022-11-16T18:17:53.312Z,8.26
2022-11-16T18:20:20.908Z,8.26
2022-11-16T18:22:48.568Z,8.26
2022-11-16T18:25:16.225Z,8.24
2022-11-16T18:27:43.818Z,8.23
2022-11-16T18:30:11.715Z,8.22
2022-11-16T18:32:39.338Z,8.22
2022-11-16T18:35:07.253Z,8.21
2022-11-16T18:37:34.801Z,8.23
2022-11-16T18:40:03.108Z,8.21
2022-11-16T18:42:30.684Z,8.20
2022-11-16T18:44:58.254Z,8.23
2022-11-16T18:47:25.894Z,8.26
2022-11-16T18:49:53.854Z,8.28
2022-11-16T18:52:21.514Z,8.28
2022-11-16T18:54:49.112Z,8.28
2022-11-16T18:57:16.729Z,8.30
2022-11-16T18:59:44.321Z,8.31
2022-11-16T19:02:12.882Z,8.33
2022-11-16T19:04:41.213Z,8.34
2022-11-16T19:07:10.159Z,8.33
2022-11-16T19:09:37.756Z,8.33
2022-11-16T19:12:05.501Z,8.33
2022-11-16T19:14:33.115Z,8.34
2022-11-16T19:17:00.737Z,8.36
2022-11-16T19:19:28.295Z,8.36
2022-11-16T19:21:55.884Z,8.35
2022-11-16T19:24:26.190Z,8.35
2022-11-16T19:26:53.749Z,8.35
2022-11-16T19:29:21.661Z,8.34
2022-11-16T19:31:49.244Z,8.32
2022-11-16T19:34:16.836Z,8.30
2022-11-16T19:36:44.400Z,8.27
2022-11-16T19:39:12.073Z,8.26
2022-11-16T19:41:39.736Z,8.29
2022-11-16T19:44:07.367Z,8.30
2022-11-16T19:46:34.950Z,8.30
2022-11-16T19:49:02.984Z,8.32
2022-11-16T19:51:32.924Z,8.34
2022-11-16T19:54:01.812Z,8.35
2022-11-16T19:56:29.591Z,8.36
2022-11-16T19:58:57.215Z,8.35
2022-11-16T20:01:26.966Z,8.33
2022-11-16T20:03:57.197Z,8.30
2022-11-16T20:06:27.796Z,8.29
2022-11-16T20:08:57.586Z,8.30
2022-11-16T20:11:27.409Z,8.32
2022-11-16T20:13:57.483Z,8.33
2022-11-16T20:16:30.686Z,8.34
2022-11-16T20:19:01.675Z,8.33
2022-11-16T20:21:31.683Z,8.31
2022-11-16T20:24:06.076Z,8.27
2022-11-16T20:26:35.746Z,8.25
2022-11-16T20:29:04.090Z,8.24
2022-11-16T20:31:33.351Z,8.24
2022-11-16T20:34:05.584Z,8.24
2022-11-16T20:36:33.873Z,8.21
2022-11-16T20:39:01.463Z,8.19
2022-11-16T20:41:32.505Z,8.18
2022-11-16T20:44:01.955Z,8.20
2022-11-16T20:46:31.546Z,8.22
2022-11-16T20:49:00.109Z,8.23
2022-11-16T20:51:28.976Z,8.24
2022-11-16T20:53:57.057Z,8.23
2022-11-16T20:56:24.913Z,8.21
2022-11-16T20:58:52.694Z,8.19
2022-11-16T21:01:22.813Z,8.17
2022-11-16T21:03:50.533Z,8.15
2022-11-16T21:06:18.056Z,8.14
2022-11-16T21:08:45.652Z,8.11
2022-11-16T21:11:19.871Z,8.09
2022-11-16T21:13:47.857Z,8.07
2022-11-16T21:16:15.712Z,8.03
2022-11-16T21:18:43.328Z,8.02
2022-11-16T21:21:13.279Z,8.01
2022-11-16T21:23:42.947Z,8.01
2022-11-16T21:26:12.757Z,7.99
2022-11-16T21:28:41.155Z,7.98
2022-11-16T21:31:17.685Z,7.97
2022-11-16T21:33:45.998Z,7.98
2022-11-16T21:36:18.980Z,8.00
2022-11-16T21:38:46.913Z,8.00
2022-11-16T21:41:15.749Z,8.01
2022-11-16T21:43:43.355Z,8.03
2022-11-16T21:46:19.756Z,8.06
2022-11-16T21:48:47.905Z,8.09
2022-11-16T21:51:18.160Z,8.10
2022-11-16T21:53:46.272Z,8.09
2022-11-16T21:56:19.137Z,8.08
2022-11-16T21:58:47.329Z,8.09
2022-11-16T22:01:16.501Z,8.11
2022-11-16T22:03:44.262Z,8.13
2022-11-16T22:06:14.860Z,8.15
2022-11-16T22:08:43.295Z,8.17
2022-11-16T22:11:11.330Z,8.18
2022-11-16T22:13:39.107Z,8.17
2022-11-16T22:16:08.940Z,8.16
2022-11-16T22:18:37.059Z,8.12
2022-11-16T22:21:05.484Z,8.10
2022-11-16T22:23:33.777Z,8.09
2022-11-16T22:26:12.650Z,8.07
2022-11-16T22:28:40.748Z,8.06
2022-11-16T22:31:15.089Z,8.05
2022-11-16T22:33:42.766Z,8.03
2022-11-16T22:36:10.744Z,8.01
2022-11-16T22:38:38.321Z,8.01
2022-11-16T22:41:06.061Z,8.03
2022-11-16T22:43:34.058Z,8.02
2022-11-16T22:46:04.408Z,8.04
2022-11-16T22:48:33.657Z,8.05
2022-11-16T22:51:04.648Z,8.06
2022-11-16T22:53:32.696Z,8.06
2022-11-16T22:56:08.261Z,8.04
2022-11-16T22:58:37.501Z,8.02
2022-11-16T23:01:06.983Z,8.03
2022-11-16T23:03:35.438Z,8.05
2022-11-16T23:06:04.410Z,8.08
2022-11-16T23:08:32.716Z,8.10
2022-11-16T23:11:07.803Z,8.11
2022-11-16T23:13:35.658Z,8.11
2022-11-16T23:16:04.700Z,8.12
2022-11-16T23:18:32.288Z,8.11
2022-11-16T23:20:59.870Z,8.12
2022-11-16T23:23:27.497Z,8.14
2022-11-16T23:25:55.132Z,8.18
2022-11-16T23:28:22.747Z,8.20
2022-11-16T23:30:50.411Z,8.21
2022-11-16T23:33:17.960Z,8.24
2022-11-16T23:35:45.553Z,8.27
2022-11-16T23:38:13.147Z,8.29
2022-11-16T23:40:40.770Z,8.29
2022-11-16T23:43:10.265Z,8.27
2022-11-16T23:45:39.196Z,8.25
2022-11-16T23:48:08.383Z,8.23
2022-11-16T23:50:36.910Z,8.20
2022-11-16T23:53:05.957Z,8.19
2022-11-16T23:55:35.787Z,8.18
2022-11-16T23:58:05.759Z,8.18
